sensor_id;sensor_type;location;lat;lon;timestamp;P1;durP1;ratioP1;P2;durP2;ratioP2
7665;SDS011;3875;46.562;4.898;2023-09-08T00:02:12;7.80;;;5.20;;
7665;SDS011;3875;46.562;4.898;2023-09-08T00:04:38;16.70;;;5.87;;
7665;SDS011;3875;46.562;4.898;2023-09-08T00:07:03;7.97;;;5.30;;
7665;SDS011;3875;46.562;4.898;2023-09-08T00:09:29;6.30;;;4.80;;
7665;SDS011;3875;46.562;4.898;2023-09-08T00:11:55;5.90;;;4.60;;
7665;SDS011;3875;46.562;4.898;2023-09-08T00:14:21;7.17;;;5.07;;
7665;SDS011;3875;46.562;4.898;2023-09-08T00:16:46;10.03;;;5.13;;
7665;SDS011;3875;46.562;4.898;2023-09-08T00:19:13;13.10;;;5.50;;
7665;SDS011;3875;46.562;4.898;2023-09-08T00:21:38;8.03;;;5.17;;
7665;SDS011;3875;46.562;4.898;2023-09-08T00:24:04;9.43;;;5.30;;
7665;SDS011;3875;46.562;4.898;2023-09-08T00:26:30;7.37;;;5.67;;
7665;SDS011;3875;46.562;4.898;2023-09-08T00:28:57;9.87;;;5.03;;
7665;SDS011;3875;46.562;4.898;2023-09-08T00:31:22;6.07;;;5.20;;
7665;SDS011;3875;46.562;4.898;2023-09-08T00:33:48;7.93;;;4.90;;
7665;SDS011;3875;46.562;4.898;2023-09-08T00:36:14;6.73;;;4.87;;
7665;SDS011;3875;46.562;4.898;2023-09-08T00:38:40;10.63;;;4.87;;
7665;SDS011;3875;46.562;4.898;2023-09-08T00:41:06;6.33;;;4.53;;
7665;SDS011;3875;46.562;4.898;2023-09-08T00:43:32;7.23;;;4.80;;
7665;SDS011;3875;46.562;4.898;2023-09-08T00:45:58;5.37;;;4.80;;
7665;SDS011;3875;46.562;4.898;2023-09-08T00:48:24;7.77;;;5.10;;
7665;SDS011;3875;46.562;4.898;2023-09-08T00:50:50;8.00;;;4.83;;
7665;SDS011;3875;46.562;4.898;2023-09-08T00:53:16;7.20;;;4.77;;
7665;SDS011;3875;46.562;4.898;2023-09-08T00:55:42;6.50;;;4.97;;
7665;SDS011;3875;46.562;4.898;2023-09-08T00:58:10;6.63;;;4.83;;
7665;SDS011;3875;46.562;4.898;2023-09-08T01:00:36;6.23;;;4.80;;
7665;SDS011;3875;46.562;4.898;2023-09-08T01:03:02;5.57;;;4.70;;
7665;SDS011;3875;46.562;4.898;2023-09-08T01:05:28;14.30;;;5.87;;
7665;SDS011;3875;46.562;4.898;2023-09-08T01:07:54;12.00;;;5.57;;
7665;SDS011;3875;46.562;4.898;2023-09-08T01:10:21;9.70;;;5.53;;
7665;SDS011;3875;46.562;4.898;2023-09-08T01:12:46;9.60;;;4.90;;
7665;SDS011;3875;46.562;4.898;2023-09-08T01:15:12;5.93;;;4.67;;
7665;SDS011;3875;46.562;4.898;2023-09-08T01:17:38;6.70;;;5.07;;
7665;SDS011;3875;46.562;4.898;2023-09-08T01:20:06;5.50;;;5.00;;
7665;SDS011;3875;46.562;4.898;2023-09-08T01:25:26;6.87;;;5.17;;
7665;SDS011;3875;46.562;4.898;2023-09-08T01:27:54;7.50;;;5.17;;
7665;SDS011;3875;46.562;4.898;2023-09-08T01:30:23;8.77;;;5.40;;
7665;SDS011;3875;46.562;4.898;2023-09-08T01:32:52;8.47;;;5.70;;
7665;SDS011;3875;46.562;4.898;2023-09-08T01:35:19;9.17;;;5.63;;
7665;SDS011;3875;46.562;4.898;2023-09-08T01:37:45;7.67;;;6.20;;
7665;SDS011;3875;46.562;4.898;2023-09-08T01:40:13;7.80;;;4.97;;
7665;SDS011;3875;46.562;4.898;2023-09-08T01:42:39;5.73;;;5.10;;
7665;SDS011;3875;46.562;4.898;2023-09-08T01:45:06;8.00;;;5.60;;
7665;SDS011;3875;46.562;4.898;2023-09-08T01:47:33;6.33;;;5.10;;
7665;SDS011;3875;46.562;4.898;2023-09-08T01:50:00;7.77;;;5.73;;
7665;SDS011;3875;46.562;4.898;2023-09-08T01:52:26;8.20;;;6.13;;
7665;SDS011;3875;46.562;4.898;2023-09-08T01:54:52;8.87;;;5.77;;
7665;SDS011;3875;46.562;4.898;2023-09-08T01:57:18;8.30;;;5.50;;
7665;SDS011;3875;46.562;4.898;2023-09-08T01:59:44;10.63;;;6.00;;
7665;SDS011;3875;46.562;4.898;2023-09-08T02:02:10;8.90;;;5.47;;
7665;SDS011;3875;46.562;4.898;2023-09-08T02:04:36;6.30;;;5.13;;
7665;SDS011;3875;46.562;4.898;2023-09-08T02:07:02;13.30;;;5.90;;
7665;SDS011;3875;46.562;4.898;2023-09-08T02:09:32;9.40;;;6.10;;
7665;SDS011;3875;46.562;4.898;2023-09-08T02:11:59;6.50;;;5.80;;
7665;SDS011;3875;46.562;4.898;2023-09-08T02:14:25;8.43;;;5.40;;
7665;SDS011;3875;46.562;4.898;2023-09-08T02:16:51;8.50;;;6.03;;
7665;SDS011;3875;46.562;4.898;2023-09-08T02:19:16;7.20;;;5.57;;
7665;SDS011;3875;46.562;4.898;2023-09-08T02:21:42;8.33;;;5.80;;
7665;SDS011;3875;46.562;4.898;2023-09-08T02:24:08;10.40;;;6.03;;
7665;SDS011;3875;46.562;4.898;2023-09-08T02:26:34;7.70;;;5.70;;
7665;SDS011;3875;46.562;4.898;2023-09-08T02:29:00;6.27;;;5.53;;
7665;SDS011;3875;46.562;4.898;2023-09-08T02:31:28;6.07;;;5.27;;
7665;SDS011;3875;46.562;4.898;2023-09-08T02:33:54;10.97;;;5.80;;
7665;SDS011;3875;46.562;4.898;2023-09-08T02:36:19;6.57;;;5.33;;
7665;SDS011;3875;46.562;4.898;2023-09-08T02:38:54;8.27;;;6.27;;
7665;SDS011;3875;46.562;4.898;2023-09-08T02:41:21;8.57;;;6.30;;
7665;SDS011;3875;46.562;4.898;2023-09-08T02:43:48;7.27;;;5.47;;
7665;SDS011;3875;46.562;4.898;2023-09-08T02:46:14;8.20;;;5.73;;
7665;SDS011;3875;46.562;4.898;2023-09-08T02:48:39;10.37;;;6.00;;
7665;SDS011;3875;46.562;4.898;2023-09-08T02:51:06;7.90;;;5.90;;
7665;SDS011;3875;46.562;4.898;2023-09-08T02:53:31;7.50;;;5.67;;
7665;SDS011;3875;46.562;4.898;2023-09-08T02:55:57;6.30;;;5.70;;
7665;SDS011;3875;46.562;4.898;2023-09-08T02:58:24;7.40;;;5.43;;
7665;SDS011;3875;46.562;4.898;2023-09-08T03:00:50;6.93;;;5.50;;
7665;SDS011;3875;46.562;4.898;2023-09-08T03:03:20;6.97;;;5.67;;
7665;SDS011;3875;46.562;4.898;2023-09-08T03:05:45;8.43;;;5.63;;
7665;SDS011;3875;46.562;4.898;2023-09-08T03:08:11;6.50;;;5.27;;
7665;SDS011;3875;46.562;4.898;2023-09-08T03:10:37;13.67;;;5.67;;
7665;SDS011;3875;46.562;4.898;2023-09-08T03:13:03;9.03;;;4.83;;
7665;SDS011;3875;46.562;4.898;2023-09-08T03:15:29;8.37;;;5.80;;
7665;SDS011;3875;46.562;4.898;2023-09-08T03:17:55;6.00;;;5.40;;
7665;SDS011;3875;46.562;4.898;2023-09-08T03:20:22;8.77;;;5.40;;
7665;SDS011;3875;46.562;4.898;2023-09-08T03:22:47;8.57;;;5.40;;
7665;SDS011;3875;46.562;4.898;2023-09-08T03:25:13;7.30;;;5.37;;
7665;SDS011;3875;46.562;4.898;2023-09-08T03:27:39;10.07;;;6.07;;
7665;SDS011;3875;46.562;4.898;2023-09-08T03:30:05;5.90;;;5.13;;
7665;SDS011;3875;46.562;4.898;2023-09-08T03:32:32;8.97;;;5.40;;
7665;SDS011;3875;46.562;4.898;2023-09-08T03:34:58;5.80;;;5.20;;
7665;SDS011;3875;46.562;4.898;2023-09-08T03:37:23;10.17;;;5.67;;
7665;SDS011;3875;46.562;4.898;2023-09-08T03:39:51;6.00;;;5.40;;
7665;SDS011;3875;46.562;4.898;2023-09-08T03:42:17;6.47;;;5.20;;
7665;SDS011;3875;46.562;4.898;2023-09-08T03:44:43;7.83;;;5.10;;
7665;SDS011;3875;46.562;4.898;2023-09-08T03:47:08;7.57;;;5.83;;
7665;SDS011;3875;46.562;4.898;2023-09-08T03:49:34;13.67;;;5.70;;
7665;SDS011;3875;46.562;4.898;2023-09-08T03:52:00;6.47;;;4.93;;
7665;SDS011;3875;46.562;4.898;2023-09-08T03:54:26;6.10;;;5.33;;
7665;SDS011;3875;46.562;4.898;2023-09-08T03:56:51;6.07;;;5.27;;
7665;SDS011;3875;46.562;4.898;2023-09-08T03:59:17;5.97;;;5.37;;
7665;SDS011;3875;46.562;4.898;2023-09-08T04:01:42;8.73;;;5.33;;
7665;SDS011;3875;46.562;4.898;2023-09-08T04:04:08;7.50;;;5.80;;
7665;SDS011;3875;46.562;4.898;2023-09-08T04:06:34;8.73;;;5.90;;
7665;SDS011;3875;46.562;4.898;2023-09-08T04:08:59;11.53;;;5.90;;
7665;SDS011;3875;46.562;4.898;2023-09-08T04:11:25;8.20;;;5.63;;
7665;SDS011;3875;46.562;4.898;2023-09-08T04:13:51;10.30;;;5.73;;
7665;SDS011;3875;46.562;4.898;2023-09-08T04:16:17;10.13;;;5.90;;
7665;SDS011;3875;46.562;4.898;2023-09-08T04:18:42;6.70;;;5.60;;
7665;SDS011;3875;46.562;4.898;2023-09-08T04:21:08;9.37;;;5.47;;
7665;SDS011;3875;46.562;4.898;2023-09-08T04:23:34;8.73;;;6.33;;
7665;SDS011;3875;46.562;4.898;2023-09-08T04:25:59;9.00;;;6.20;;
7665;SDS011;3875;46.562;4.898;2023-09-08T04:28:26;7.17;;;5.77;;
7665;SDS011;3875;46.562;4.898;2023-09-08T04:30:51;11.93;;;6.03;;
7665;SDS011;3875;46.562;4.898;2023-09-08T04:33:17;7.93;;;5.13;;
7665;SDS011;3875;46.562;4.898;2023-09-08T04:35:43;9.33;;;5.53;;
7665;SDS011;3875;46.562;4.898;2023-09-08T04:38:08;6.33;;;5.73;;
7665;SDS011;3875;46.562;4.898;2023-09-08T04:40:34;7.37;;;5.90;;
7665;SDS011;3875;46.562;4.898;2023-09-08T04:43:00;7.23;;;5.67;;
7665;SDS011;3875;46.562;4.898;2023-09-08T04:45:25;9.33;;;6.00;;
7665;SDS011;3875;46.562;4.898;2023-09-08T04:47:51;8.50;;;5.90;;
7665;SDS011;3875;46.562;4.898;2023-09-08T04:50:17;8.40;;;6.80;;
7665;SDS011;3875;46.562;4.898;2023-09-08T04:52:43;9.90;;;6.20;;
7665;SDS011;3875;46.562;4.898;2023-09-08T04:55:09;6.83;;;5.37;;
7665;SDS011;3875;46.562;4.898;2023-09-08T04:57:35;8.67;;;6.20;;
7665;SDS011;3875;46.562;4.898;2023-09-08T05:00:01;8.87;;;5.83;;
7665;SDS011;3875;46.562;4.898;2023-09-08T05:02:27;9.63;;;6.97;;
7665;SDS011;3875;46.562;4.898;2023-09-08T05:04:52;12.53;;;7.40;;
7665;SDS011;3875;46.562;4.898;2023-09-08T05:07:18;10.37;;;7.87;;
7665;SDS011;3875;46.562;4.898;2023-09-08T05:09:44;10.57;;;8.73;;
7665;SDS011;3875;46.562;4.898;2023-09-08T05:12:10;11.37;;;9.17;;
7665;SDS011;3875;46.562;4.898;2023-09-08T05:14:35;14.90;;;10.50;;
7665;SDS011;3875;46.562;4.898;2023-09-08T05:17:01;17.43;;;11.27;;
7665;SDS011;3875;46.562;4.898;2023-09-08T05:19:27;18.37;;;10.57;;
7665;SDS011;3875;46.562;4.898;2023-09-08T05:21:53;18.17;;;10.83;;
7665;SDS011;3875;46.562;4.898;2023-09-08T05:24:20;10.67;;;9.30;;
7665;SDS011;3875;46.562;4.898;2023-09-08T05:26:46;10.30;;;9.07;;
7665;SDS011;3875;46.562;4.898;2023-09-08T05:29:12;12.77;;;8.33;;
7665;SDS011;3875;46.562;4.898;2023-09-08T05:31:38;9.33;;;8.17;;
7665;SDS011;3875;46.562;4.898;2023-09-08T05:34:04;8.07;;;7.07;;
7665;SDS011;3875;46.562;4.898;2023-09-08T05:36:30;9.20;;;6.57;;
7665;SDS011;3875;46.562;4.898;2023-09-08T05:38:57;11.57;;;6.83;;
7665;SDS011;3875;46.562;4.898;2023-09-08T05:41:23;9.30;;;6.73;;
7665;SDS011;3875;46.562;4.898;2023-09-08T05:43:48;8.43;;;6.93;;
7665;SDS011;3875;46.562;4.898;2023-09-08T05:46:14;8.23;;;6.57;;
7665;SDS011;3875;46.562;4.898;2023-09-08T05:48:40;9.83;;;6.60;;
7665;SDS011;3875;46.562;4.898;2023-09-08T05:51:05;8.17;;;7.10;;
7665;SDS011;3875;46.562;4.898;2023-09-08T05:53:32;9.60;;;6.70;;
7665;SDS011;3875;46.562;4.898;2023-09-08T05:55:58;8.07;;;6.23;;
7665;SDS011;3875;46.562;4.898;2023-09-08T05:58:24;9.07;;;6.00;;
7665;SDS011;3875;46.562;4.898;2023-09-08T06:00:52;6.53;;;5.60;;
7665;SDS011;3875;46.562;4.898;2023-09-08T06:03:18;10.90;;;6.50;;
7665;SDS011;3875;46.562;4.898;2023-09-08T06:05:44;7.93;;;6.17;;
7665;SDS011;3875;46.562;4.898;2023-09-08T06:08:10;8.47;;;6.40;;
7665;SDS011;3875;46.562;4.898;2023-09-08T06:10:36;7.27;;;5.90;;
7665;SDS011;3875;46.562;4.898;2023-09-08T06:13:03;9.10;;;6.70;;
7665;SDS011;3875;46.562;4.898;2023-09-08T06:15:29;7.63;;;6.00;;
7665;SDS011;3875;46.562;4.898;2023-09-08T06:17:54;10.10;;;6.30;;
7665;SDS011;3875;46.562;4.898;2023-09-08T06:20:20;11.20;;;6.53;;
7665;SDS011;3875;46.562;4.898;2023-09-08T06:22:46;12.40;;;6.83;;
7665;SDS011;3875;46.562;4.898;2023-09-08T06:25:12;6.20;;;5.60;;
7665;SDS011;3875;46.562;4.898;2023-09-08T06:27:38;8.47;;;5.20;;
7665;SDS011;3875;46.562;4.898;2023-09-08T06:30:04;6.53;;;5.20;;
7665;SDS011;3875;46.562;4.898;2023-09-08T06:32:30;11.07;;;5.60;;
7665;SDS011;3875;46.562;4.898;2023-09-08T06:34:56;8.57;;;5.43;;
7665;SDS011;3875;46.562;4.898;2023-09-08T06:37:22;6.00;;;4.70;;
7665;SDS011;3875;46.562;4.898;2023-09-08T06:39:47;5.00;;;4.50;;
7665;SDS011;3875;46.562;4.898;2023-09-08T06:42:13;7.17;;;4.60;;
7665;SDS011;3875;46.562;4.898;2023-09-08T06:44:39;4.73;;;4.20;;
7665;SDS011;3875;46.562;4.898;2023-09-08T06:47:04;7.50;;;4.80;;
7665;SDS011;3875;46.562;4.898;2023-09-08T06:49:32;5.60;;;5.10;;
7665;SDS011;3875;46.562;4.898;2023-09-08T06:51:58;4.80;;;4.30;;
7665;SDS011;3875;46.562;4.898;2023-09-08T06:54:23;5.57;;;4.30;;
7665;SDS011;3875;46.562;4.898;2023-09-08T06:56:49;5.87;;;4.20;;
7665;SDS011;3875;46.562;4.898;2023-09-08T06:59:14;5.57;;;4.50;;
7665;SDS011;3875;46.562;4.898;2023-09-08T07:01:41;5.90;;;4.33;;
7665;SDS011;3875;46.562;4.898;2023-09-08T07:04:06;4.60;;;3.80;;
7665;SDS011;3875;46.562;4.898;2023-09-08T07:06:32;4.93;;;4.40;;
7665;SDS011;3875;46.562;4.898;2023-09-08T07:08:58;5.43;;;3.80;;
7665;SDS011;3875;46.562;4.898;2023-09-08T07:11:24;7.53;;;4.13;;
7665;SDS011;3875;46.562;4.898;2023-09-08T07:13:50;4.53;;;4.00;;
7665;SDS011;3875;46.562;4.898;2023-09-08T07:16:15;4.97;;;3.93;;
7665;SDS011;3875;46.562;4.898;2023-09-08T07:18:41;8.53;;;4.23;;
7665;SDS011;3875;46.562;4.898;2023-09-08T07:21:07;5.40;;;3.73;;
7665;SDS011;3875;46.562;4.898;2023-09-08T07:23:32;9.77;;;4.10;;
7665;SDS011;3875;46.562;4.898;2023-09-08T07:26:00;9.60;;;4.23;;
7665;SDS011;3875;46.562;4.898;2023-09-08T07:28:25;6.87;;;4.17;;
7665;SDS011;3875;46.562;4.898;2023-09-08T07:30:51;7.07;;;4.43;;
7665;SDS011;3875;46.562;4.898;2023-09-08T07:33:17;5.00;;;4.37;;
7665;SDS011;3875;46.562;4.898;2023-09-08T07:35:44;5.33;;;4.07;;
7665;SDS011;3875;46.562;4.898;2023-09-08T07:38:09;6.60;;;5.00;;
7665;SDS011;3875;46.562;4.898;2023-09-08T07:40:35;5.60;;;4.70;;
7665;SDS011;3875;46.562;4.898;2023-09-08T07:43:01;5.53;;;4.43;;
7665;SDS011;3875;46.562;4.898;2023-09-08T07:45:27;5.30;;;4.13;;
7665;SDS011;3875;46.562;4.898;2023-09-08T07:47:53;5.00;;;4.23;;
7665;SDS011;3875;46.562;4.898;2023-09-08T07:50:25;5.70;;;3.90;;
7665;SDS011;3875;46.562;4.898;2023-09-08T07:52:53;4.85;;;4.45;;
7665;SDS011;3875;46.562;4.898;2023-09-08T07:55:19;4.93;;;3.83;;
7665;SDS011;3875;46.562;4.898;2023-09-08T07:57:48;4.50;;;4.10;;
7665;SDS011;3875;46.562;4.898;2023-09-08T08:00:15;8.53;;;3.87;;
7665;SDS011;3875;46.562;4.898;2023-09-08T08:02:45;5.23;;;3.90;;
7665;SDS011;3875;46.562;4.898;2023-09-08T08:05:12;5.10;;;3.73;;
7665;SDS011;3875;46.562;4.898;2023-09-08T08:07:38;4.50;;;4.10;;
7665;SDS011;3875;46.562;4.898;2023-09-08T08:10:04;4.60;;;4.20;;
7665;SDS011;3875;46.562;4.898;2023-09-08T08:12:33;4.57;;;4.17;;
7665;SDS011;3875;46.562;4.898;2023-09-08T08:14:59;5.83;;;3.93;;
7665;SDS011;3875;46.562;4.898;2023-09-08T08:17:25;7.28;;;4.47;;
7665;SDS011;3875;46.562;4.898;2023-09-08T08:19:52;4.20;;;3.90;;
7665;SDS011;3875;46.562;4.898;2023-09-08T08:22:19;5.47;;;4.00;;
7665;SDS011;3875;46.562;4.898;2023-09-08T08:24:45;5.00;;;4.50;;
7665;SDS011;3875;46.562;4.898;2023-09-08T08:27:11;7.60;;;4.20;;
7665;SDS011;3875;46.562;4.898;2023-09-08T08:29:36;4.93;;;4.23;;
7665;SDS011;3875;46.562;4.898;2023-09-08T08:32:03;7.23;;;4.70;;
7665;SDS011;3875;46.562;4.898;2023-09-08T08:34:29;7.17;;;4.40;;
7665;SDS011;3875;46.562;4.898;2023-09-08T08:36:54;6.70;;;4.57;;
7665;SDS011;3875;46.562;4.898;2023-09-08T08:39:20;11.27;;;4.50;;
7665;SDS011;3875;46.562;4.898;2023-09-08T08:41:46;5.67;;;4.70;;
7665;SDS011;3875;46.562;4.898;2023-09-08T08:44:11;6.75;;;5.10;;
7665;SDS011;3875;46.562;4.898;2023-09-08T08:46:40;6.10;;;4.93;;
7665;SDS011;3875;46.562;4.898;2023-09-08T08:49:06;8.90;;;4.97;;
7665;SDS011;3875;46.562;4.898;2023-09-08T08:51:34;7.03;;;4.70;;
7665;SDS011;3875;46.562;4.898;2023-09-08T08:54:01;7.80;;;5.10;;
7665;SDS011;3875;46.562;4.898;2023-09-08T08:56:32;12.43;;;5.17;;
7665;SDS011;3875;46.562;4.898;2023-09-08T08:59:01;8.88;;;5.22;;
7665;SDS011;3875;46.562;4.898;2023-09-08T09:01:27;12.73;;;5.13;;
7665;SDS011;3875;46.562;4.898;2023-09-08T09:03:54;6.90;;;4.40;;
7665;SDS011;3875;46.562;4.898;2023-09-08T09:06:21;6.10;;;5.07;;
7665;SDS011;3875;46.562;4.898;2023-09-08T09:08:46;8.50;;;5.20;;
7665;SDS011;3875;46.562;4.898;2023-09-08T09:11:12;6.50;;;4.60;;
7665;SDS011;3875;46.562;4.898;2023-09-08T09:13:38;9.05;;;4.95;;
7665;SDS011;3875;46.562;4.898;2023-09-08T09:16:04;6.90;;;5.17;;
7665;SDS011;3875;46.562;4.898;2023-09-08T09:18:35;10.23;;;5.00;;
7665;SDS011;3875;46.562;4.898;2023-09-08T09:21:20;7.10;;;4.53;;
7665;SDS011;3875;46.562;4.898;2023-09-08T09:23:46;6.50;;;4.80;;
7665;SDS011;3875;46.562;4.898;2023-09-08T09:26:12;7.03;;;4.37;;
7665;SDS011;3875;46.562;4.898;2023-09-08T09:28:48;7.87;;;4.63;;
7665;SDS011;3875;46.562;4.898;2023-09-08T09:31:16;9.25;;;4.93;;
7665;SDS011;3875;46.562;4.898;2023-09-08T09:34:01;6.00;;;4.40;;
7665;SDS011;3875;46.562;4.898;2023-09-08T09:36:29;9.07;;;4.60;;
7665;SDS011;3875;46.562;4.898;2023-09-08T09:38:59;4.45;;;4.05;;
7665;SDS011;3875;46.562;4.898;2023-09-08T09:41:27;5.40;;;4.22;;
7665;SDS011;3875;46.562;4.898;2023-09-08T09:43:53;7.35;;;4.90;;
7665;SDS011;3875;46.562;4.898;2023-09-08T09:46:20;7.28;;;5.00;;
7665;SDS011;3875;46.562;4.898;2023-09-08T09:48:49;6.10;;;4.30;;
7665;SDS011;3875;46.562;4.898;2023-09-08T09:51:17;8.40;;;4.47;;
7665;SDS011;3875;46.562;4.898;2023-09-08T09:53:44;7.05;;;4.40;;
7665;SDS011;3875;46.562;4.898;2023-09-08T09:56:11;6.40;;;4.70;;
7665;SDS011;3875;46.562;4.898;2023-09-08T09:58:38;8.00;;;4.90;;
7665;SDS011;3875;46.562;4.898;2023-09-08T10:01:05;8.13;;;4.57;;
7665;SDS011;3875;46.562;4.898;2023-09-08T10:03:31;4.90;;;4.28;;
7665;SDS011;3875;46.562;4.898;2023-09-08T10:05:58;7.68;;;4.30;;
7665;SDS011;3875;46.562;4.898;2023-09-08T10:08:25;7.68;;;4.70;;
7665;SDS011;3875;46.562;4.898;2023-09-08T10:10:50;4.68;;;4.25;;
7665;SDS011;3875;46.562;4.898;2023-09-08T10:13:28;6.07;;;4.30;;
7665;SDS011;3875;46.562;4.898;2023-09-08T10:15:57;5.25;;;4.22;;
7665;SDS011;3875;46.562;4.898;2023-09-08T10:18:23;6.85;;;4.65;;
7665;SDS011;3875;46.562;4.898;2023-09-08T10:20:50;7.75;;;4.88;;
7665;SDS011;3875;46.562;4.898;2023-09-08T10:23:30;5.97;;;4.78;;
7665;SDS011;3875;46.562;4.898;2023-09-08T10:26:02;5.13;;;4.45;;
7665;SDS011;3875;46.562;4.898;2023-09-08T10:28:31;7.43;;;4.85;;
7665;SDS011;3875;46.562;4.898;2023-09-08T10:30:58;5.45;;;4.65;;
7665;SDS011;3875;46.562;4.898;2023-09-08T10:33:24;4.85;;;4.22;;
7665;SDS011;3875;46.562;4.898;2023-09-08T10:35:51;6.75;;;4.10;;
7665;SDS011;3875;46.562;4.898;2023-09-08T10:40:54;6.50;;;4.90;;
7665;SDS011;3875;46.562;4.898;2023-09-08T10:43:45;8.60;;;5.13;;
7665;SDS011;3875;46.562;4.898;2023-09-08T10:46:20;6.15;;;4.32;;
7665;SDS011;3875;46.562;4.898;2023-09-08T10:48:47;5.18;;;4.57;;
7665;SDS011;3875;46.562;4.898;2023-09-08T10:51:19;6.03;;;4.50;;
7665;SDS011;3875;46.562;4.898;2023-09-08T10:53:46;7.97;;;4.80;;
7665;SDS011;3875;46.562;4.898;2023-09-08T10:56:13;4.40;;;4.07;;
7665;SDS011;3875;46.562;4.898;2023-09-08T10:58:39;6.63;;;4.38;;
7665;SDS011;3875;46.562;4.898;2023-09-08T11:01:08;6.43;;;4.40;;
7665;SDS011;3875;46.562;4.898;2023-09-08T11:06:07;5.80;;;5.00;;
7665;SDS011;3875;46.562;4.898;2023-09-08T11:08:33;8.23;;;4.63;;
7665;SDS011;3875;46.562;4.898;2023-09-08T11:11:02;6.18;;;4.25;;
7665;SDS011;3875;46.562;4.898;2023-09-08T11:13:28;4.93;;;4.43;;
7665;SDS011;3875;46.562;4.898;2023-09-08T11:15:54;5.55;;;4.10;;
7665;SDS011;3875;46.562;4.898;2023-09-08T11:18:26;4.68;;;4.25;;
7665;SDS011;3875;46.562;4.898;2023-09-08T11:20:52;4.10;;;3.72;;
7665;SDS011;3875;46.562;4.898;2023-09-08T11:23:18;5.85;;;4.45;;
7665;SDS011;3875;46.562;4.898;2023-09-08T11:25:45;5.35;;;4.57;;
7665;SDS011;3875;46.562;4.898;2023-09-08T11:28:11;6.15;;;4.10;;
7665;SDS011;3875;46.562;4.898;2023-09-08T11:30:38;5.35;;;4.18;;
7665;SDS011;3875;46.562;4.898;2023-09-08T11:33:07;7.53;;;4.47;;
7665;SDS011;3875;46.562;4.898;2023-09-08T11:35:39;7.63;;;4.32;;
7665;SDS011;3875;46.562;4.898;2023-09-08T11:38:05;4.93;;;4.40;;
7665;SDS011;3875;46.562;4.898;2023-09-08T11:40:30;6.57;;;4.10;;
7665;SDS011;3875;46.562;4.898;2023-09-08T11:42:57;5.05;;;4.65;;
7665;SDS011;3875;46.562;4.898;2023-09-08T11:45:23;5.70;;;4.30;;
7665;SDS011;3875;46.562;4.898;2023-09-08T11:47:49;9.70;;;3.92;;
7665;SDS011;3875;46.562;4.898;2023-09-08T11:50:15;4.70;;;3.70;;
7665;SDS011;3875;46.562;4.898;2023-09-08T11:52:46;5.25;;;4.20;;
7665;SDS011;3875;46.562;4.898;2023-09-08T11:55:13;5.43;;;4.20;;
7665;SDS011;3875;46.562;4.898;2023-09-08T11:57:40;4.53;;;3.92;;
7665;SDS011;3875;46.562;4.898;2023-09-08T12:00:07;6.43;;;4.03;;
7665;SDS011;3875;46.562;4.898;2023-09-08T12:02:36;4.43;;;3.92;;
7665;SDS011;3875;46.562;4.898;2023-09-08T12:05:02;5.40;;;3.95;;
7665;SDS011;3875;46.562;4.898;2023-09-08T12:07:28;4.82;;;3.88;;
7665;SDS011;3875;46.562;4.898;2023-09-08T12:09:54;6.32;;;4.00;;
7665;SDS011;3875;46.562;4.898;2023-09-08T12:12:20;4.50;;;4.10;;
7665;SDS011;3875;46.562;4.898;2023-09-08T12:14:46;5.72;;;4.07;;
7665;SDS011;3875;46.562;4.898;2023-09-08T12:17:11;6.45;;;4.00;;
7665;SDS011;3875;46.562;4.898;2023-09-08T12:19:41;5.00;;;3.80;;
7665;SDS011;3875;46.562;4.898;2023-09-08T12:22:07;4.30;;;3.92;;
7665;SDS011;3875;46.562;4.898;2023-09-08T12:24:49;3.70;;;3.40;;
7665;SDS011;3875;46.562;4.898;2023-09-08T12:27:24;4.47;;;3.80;;
7665;SDS011;3875;46.562;4.898;2023-09-08T12:29:59;6.70;;;4.30;;
7665;SDS011;3875;46.562;4.898;2023-09-08T12:32:28;7.20;;;4.45;;
7665;SDS011;3875;46.562;4.898;2023-09-08T12:34:54;4.82;;;3.78;;
7665;SDS011;3875;46.562;4.898;2023-09-08T12:37:23;4.97;;;4.28;;
7665;SDS011;3875;46.562;4.898;2023-09-08T12:39:52;5.05;;;3.72;;
7665;SDS011;3875;46.562;4.898;2023-09-08T12:42:18;4.00;;;3.70;;
7665;SDS011;3875;46.562;4.898;2023-09-08T12:44:45;5.03;;;3.70;;
7665;SDS011;3875;46.562;4.898;2023-09-08T12:47:10;4.20;;;3.80;;
7665;SDS011;3875;46.562;4.898;2023-09-08T12:49:39;5.30;;;3.90;;
7665;SDS011;3875;46.562;4.898;2023-09-08T12:52:05;4.53;;;4.13;;
7665;SDS011;3875;46.562;4.898;2023-09-08T12:54:31;6.32;;;3.80;;
7665;SDS011;3875;46.562;4.898;2023-09-08T12:56:57;4.07;;;3.60;;
7665;SDS011;3875;46.562;4.898;2023-09-08T12:59:23;10.15;;;4.00;;
7665;SDS011;3875;46.562;4.898;2023-09-08T13:01:48;8.67;;;4.10;;
7665;SDS011;3875;46.562;4.898;2023-09-08T13:04:14;5.28;;;4.00;;
7665;SDS011;3875;46.562;4.898;2023-09-08T13:06:40;4.70;;;3.97;;
7665;SDS011;3875;46.562;4.898;2023-09-08T13:09:05;4.35;;;3.88;;
7665;SDS011;3875;46.562;4.898;2023-09-08T13:11:32;5.97;;;3.40;;
7665;SDS011;3875;46.562;4.898;2023-09-08T13:13:58;4.03;;;3.60;;
7665;SDS011;3875;46.562;4.898;2023-09-08T13:16:24;5.30;;;3.50;;
7665;SDS011;3875;46.562;4.898;2023-09-08T13:18:49;7.45;;;3.42;;
7665;SDS011;3875;46.562;4.898;2023-09-08T13:21:16;5.15;;;3.50;;
7665;SDS011;3875;46.562;4.898;2023-09-08T13:23:42;5.50;;;4.28;;
7665;SDS011;3875;46.562;4.898;2023-09-08T13:26:07;18.67;;;3.92;;
7665;SDS011;3875;46.562;4.898;2023-09-08T13:28:33;4.57;;;3.70;;
7665;SDS011;3875;46.562;4.898;2023-09-08T13:30:58;10.50;;;3.70;;
7665;SDS011;3875;46.562;4.898;2023-09-08T13:33:24;7.90;;;4.25;;
7665;SDS011;3875;46.562;4.898;2023-09-08T13:35:50;3.70;;;3.40;;
7665;SDS011;3875;46.562;4.898;2023-09-08T13:38:15;6.40;;;3.95;;
7665;SDS011;3875;46.562;4.898;2023-09-08T13:40:41;6.55;;;3.80;;
7665;SDS011;3875;46.562;4.898;2023-09-08T13:43:07;7.82;;;3.80;;
7665;SDS011;3875;46.562;4.898;2023-09-08T13:45:32;5.28;;;4.00;;
7665;SDS011;3875;46.562;4.898;2023-09-08T13:47:58;4.55;;;3.83;;
7665;SDS011;3875;46.562;4.898;2023-09-08T13:50:24;4.20;;;3.90;;
7665;SDS011;3875;46.562;4.898;2023-09-08T13:52:49;4.53;;;3.95;;
7665;SDS011;3875;46.562;4.898;2023-09-08T13:55:15;7.30;;;4.00;;
7665;SDS011;3875;46.562;4.898;2023-09-08T13:57:41;4.38;;;3.83;;
7665;SDS011;3875;46.562;4.898;2023-09-08T14:00:07;7.53;;;4.13;;
7665;SDS011;3875;46.562;4.898;2023-09-08T14:02:36;4.55;;;3.33;;
7665;SDS011;3875;46.562;4.898;2023-09-08T14:05:02;5.00;;;3.95;;
7665;SDS011;3875;46.562;4.898;2023-09-08T14:07:28;5.45;;;3.80;;
7665;SDS011;3875;46.562;4.898;2023-09-08T14:09:53;4.60;;;3.72;;
7665;SDS011;3875;46.562;4.898;2023-09-08T14:12:19;6.55;;;4.00;;
7665;SDS011;3875;46.562;4.898;2023-09-08T14:14:44;4.25;;;3.40;;
7665;SDS011;3875;46.562;4.898;2023-09-08T14:17:10;6.90;;;3.47;;
7665;SDS011;3875;46.562;4.898;2023-09-08T14:19:36;4.63;;;3.95;;
7665;SDS011;3875;46.562;4.898;2023-09-08T14:22:01;4.32;;;3.78;;
7665;SDS011;3875;46.562;4.898;2023-09-08T14:24:27;3.70;;;3.40;;
7665;SDS011;3875;46.562;4.898;2023-09-08T14:26:53;5.13;;;4.10;;
7665;SDS011;3875;46.562;4.898;2023-09-08T14:29:18;6.25;;;3.53;;
7665;SDS011;3875;46.562;4.898;2023-09-08T14:31:46;12.35;;;4.00;;
7665;SDS011;3875;46.562;4.898;2023-09-08T14:34:11;4.28;;;3.25;;
7665;SDS011;3875;46.562;4.898;2023-09-08T14:36:37;4.38;;;3.28;;
7665;SDS011;3875;46.562;4.898;2023-09-08T14:39:03;9.18;;;4.03;;
7665;SDS011;3875;46.562;4.898;2023-09-08T14:41:29;4.95;;;4.03;;
7665;SDS011;3875;46.562;4.898;2023-09-08T14:43:54;4.82;;;3.63;;
7665;SDS011;3875;46.562;4.898;2023-09-08T14:46:20;5.35;;;4.05;;
7665;SDS011;3875;46.562;4.898;2023-09-08T14:48:46;5.93;;;3.53;;
7665;SDS011;3875;46.562;4.898;2023-09-08T14:51:11;4.05;;;3.75;;
7665;SDS011;3875;46.562;4.898;2023-09-08T14:53:37;5.80;;;3.50;;
7665;SDS011;3875;46.562;4.898;2023-09-08T14:56:03;4.07;;;3.65;;
7665;SDS011;3875;46.562;4.898;2023-09-08T14:58:30;5.38;;;3.50;;
7665;SDS011;3875;46.562;4.898;2023-09-08T15:00:59;4.97;;;3.72;;
7665;SDS011;3875;46.562;4.898;2023-09-08T15:03:32;5.03;;;3.67;;
7665;SDS011;3875;46.562;4.898;2023-09-08T15:05:58;5.38;;;4.05;;
7665;SDS011;3875;46.562;4.898;2023-09-08T15:08:24;5.00;;;3.42;;
7665;SDS011;3875;46.562;4.898;2023-09-08T15:10:50;4.63;;;3.42;;
7665;SDS011;3875;46.562;4.898;2023-09-08T15:13:16;4.65;;;3.47;;
7665;SDS011;3875;46.562;4.898;2023-09-08T15:15:42;3.95;;;3.53;;
7665;SDS011;3875;46.562;4.898;2023-09-08T15:18:07;3.92;;;3.38;;